sensor_id;sensor_type;location;lat;lon;timestamp;pressure;altitude;pressure_sealevel;temperature;humidity
77216;BME280;66210;53.282;9.864;2023-07-20T00:00:04;100731.88;;;12.78;85.06
77216;BME280;66210;53.282;9.864;2023-07-20T00:02:31;100719.50;;;12.65;84.79
77216;BME280;66210;53.282;9.864;2023-07-20T00:04:58;100728.09;;;12.68;85.37
77216;BME280;66210;53.282;9.864;2023-07-20T00:07:25;100731.50;;;12.67;84.95
77216;BME280;66210;53.282;9.864;2023-07-20T00:09:52;100726.16;;;12.61;85.33
77216;BME280;66210;53.282;9.864;2023-07-20T00:12:19;100713.00;;;12.51;85.07
77216;BME280;66210;53.282;9.864;2023-07-20T00:14:45;100711.50;;;12.56;85.44
77216;BME280;66210;53.282;9.864;2023-07-20T00:17:12;100709.06;;;12.59;85.32
77216;BME280;66210;53.282;9.864;2023-07-20T00:19:39;100715.78;;;12.57;85.33
77216;BME280;66210;53.282;9.864;2023-07-20T00:22:06;100704.38;;;12.47;84.96
77216;BME280;66210;53.282;9.864;2023-07-20T00:24:33;100710.16;;;12.43;84.71
77216;BME280;66210;53.282;9.864;2023-07-20T00:27:00;100715.78;;;12.34;85.29
77216;BME280;66210;53.282;9.864;2023-07-20T00:29:27;100723.34;;;12.33;85.09
77216;BME280;66210;53.282;9.864;2023-07-20T00:31:54;100717.41;;;12.32;85.35
77216;BME280;66210;53.282;9.864;2023-07-20T00:34:21;100719.16;;;12.33;85.46
77216;BME280;66210;53.282;9.864;2023-07-20T00:36:48;100720.00;;;12.34;85.70
77216;BME280;66210;53.282;9.864;2023-07-20T00:39:16;100724.34;;;12.36;85.86
77216;BME280;66210;53.282;9.864;2023-07-20T00:41:42;100726.09;;;12.37;85.82
77216;BME280;66210;53.282;9.864;2023-07-20T00:44:09;100720.13;;;12.37;85.45
77216;BME280;66210;53.282;9.864;2023-07-20T00:46:36;100717.50;;;12.35;86.03
77216;BME280;66210;53.282;9.864;2023-07-20T00:49:03;100715.88;;;12.37;85.51
77216;BME280;66210;53.282;9.864;2023-07-20T00:51:30;100703.66;;;12.28;85.89
77216;BME280;66210;53.282;9.864;2023-07-20T00:53:57;100712.41;;;12.35;85.79
77216;BME280;66210;53.282;9.864;2023-07-20T00:56:24;100720.19;;;12.38;86.06
77216;BME280;66210;53.282;9.864;2023-07-20T00:58:52;100717.72;;;12.40;86.20
77216;BME280;66210;53.282;9.864;2023-07-20T01:01:19;100707.38;;;12.37;86.39
77216;BME280;66210;53.282;9.864;2023-07-20T01:03:46;100697.88;;;12.33;86.40
77216;BME280;66210;53.282;9.864;2023-07-20T01:06:26;100708.31;;;12.39;86.26
77216;BME280;66210;53.282;9.864;2023-07-20T01:09:11;100707.56;;;12.41;85.78
77216;BME280;66210;53.282;9.864;2023-07-20T01:11:57;100711.03;;;12.43;86.23
77216;BME280;66210;53.282;9.864;2023-07-20T01:14:26;100712.78;;;12.44;86.55
77216;BME280;66210;53.282;9.864;2023-07-20T01:16:53;100707.69;;;12.44;86.32
77216;BME280;66210;53.282;9.864;2023-07-20T01:19:20;100718.75;;;12.45;86.94
77216;BME280;66210;53.282;9.864;2023-07-20T01:21:55;100719.53;;;12.44;86.45
77216;BME280;66210;53.282;9.864;2023-07-20T01:27:21;100711.22;;;12.48;87.40
77216;BME280;66210;53.282;9.864;2023-07-20T01:30:08;100691.41;;;12.41;86.92
77216;BME280;66210;53.282;9.864;2023-07-20T01:32:42;100706.34;;;12.54;86.93
77216;BME280;66210;53.282;9.864;2023-07-20T01:35:11;100713.31;;;12.58;87.60
77216;BME280;66210;53.282;9.864;2023-07-20T01:37:44;100700.56;;;12.58;87.00
77216;BME280;66210;53.282;9.864;2023-07-20T01:40:14;100716.97;;;12.66;87.56
77216;BME280;66210;53.282;9.864;2023-07-20T01:42:45;100709.41;;;12.68;88.17
77216;BME280;66210;53.282;9.864;2023-07-20T01:45:13;100707.88;;;12.73;88.28
77216;BME280;66210;53.282;9.864;2023-07-20T01:47:40;100702.94;;;12.78;87.54
77216;BME280;66210;53.282;9.864;2023-07-20T01:50:07;100702.16;;;12.79;88.82
77216;BME280;66210;53.282;9.864;2023-07-20T01:52:34;100693.66;;;12.78;88.05
77216;BME280;66210;53.282;9.864;2023-07-20T01:55:00;100695.38;;;12.79;88.67
77216;BME280;66210;53.282;9.864;2023-07-20T01:57:27;100699.88;;;12.86;88.64
77216;BME280;66210;53.282;9.864;2023-07-20T01:59:54;100703.34;;;12.88;88.32
77216;BME280;66210;53.282;9.864;2023-07-20T02:02:20;100694.06;;;12.90;88.59
77216;BME280;66210;53.282;9.864;2023-07-20T02:04:47;100698.47;;;12.95;88.75
77216;BME280;66210;53.282;9.864;2023-07-20T02:07:13;100695.06;;;12.94;88.89
77216;BME280;66210;53.282;9.864;2023-07-20T02:09:40;100698.47;;;12.95;89.10
77216;BME280;66210;53.282;9.864;2023-07-20T02:12:07;100707.03;;;12.97;89.36
77216;BME280;66210;53.282;9.864;2023-07-20T02:14:33;100701.94;;;12.97;89.62
77216;BME280;66210;53.282;9.864;2023-07-20T02:17:00;100689.91;;;12.93;89.34
77216;BME280;66210;53.282;9.864;2023-07-20T02:19:30;100695.16;;;12.97;89.41
77216;BME280;66210;53.282;9.864;2023-07-20T02:21:57;100703.78;;;13.01;89.57
77216;BME280;66210;53.282;9.864;2023-07-20T02:24:24;100689.25;;;12.98;89.08
77216;BME280;66210;53.282;9.864;2023-07-20T02:26:52;100686.72;;;12.98;89.71
77216;BME280;66210;53.282;9.864;2023-07-20T02:29:18;100680.06;;;13.03;88.65
77216;BME280;66210;53.282;9.864;2023-07-20T02:31:45;100691.19;;;13.05;89.64
77216;BME280;66210;53.282;9.864;2023-07-20T02:34:12;100691.91;;;13.01;88.84
77216;BME280;66210;53.282;9.864;2023-07-20T02:36:38;100696.31;;;13.05;89.85
77216;BME280;66210;53.282;9.864;2023-07-20T02:39:05;100692.06;;;13.06;89.41
77216;BME280;66210;53.282;9.864;2023-07-20T02:41:33;100704.13;;;13.10;89.54
77216;BME280;66210;53.282;9.864;2023-07-20T02:44:00;100698.72;;;13.02;89.40
77216;BME280;66210;53.282;9.864;2023-07-20T02:46:27;100709.28;;;13.12;89.00
77216;BME280;66210;53.282;9.864;2023-07-20T02:48:56;100711.00;;;13.13;89.07
77216;BME280;66210;53.282;9.864;2023-07-20T02:51:23;100712.72;;;13.14;89.45
77216;BME280;66210;53.282;9.864;2023-07-20T02:53:49;100709.31;;;13.13;89.27
77216;BME280;66210;53.282;9.864;2023-07-20T02:56:16;100704.91;;;13.09;89.44
77216;BME280;66210;53.282;9.864;2023-07-20T02:58:44;100708.34;;;13.09;89.92
77216;BME280;66210;53.282;9.864;2023-07-20T03:01:12;100702.28;;;13.06;90.39
77216;BME280;66210;53.282;9.864;2023-07-20T03:03:39;100707.53;;;13.10;89.90
77216;BME280;66210;53.282;9.864;2023-07-20T03:06:06;100711.06;;;13.14;90.30
77216;BME280;66210;53.282;9.864;2023-07-20T03:08:35;100709.31;;;13.13;89.87
77216;BME280;66210;53.282;9.864;2023-07-20T03:11:02;100721.44;;;13.19;89.85
77216;BME280;66210;53.282;9.864;2023-07-20T03:13:29;100712.94;;;13.20;89.79
77216;BME280;66210;53.282;9.864;2023-07-20T03:15:56;100711.16;;;13.17;89.67
77216;BME280;66210;53.282;9.864;2023-07-20T03:18:23;100718.19;;;13.23;89.46
77216;BME280;66210;53.282;9.864;2023-07-20T03:20:49;100712.84;;;13.17;89.90
77216;BME280;66210;53.282;9.864;2023-07-20T03:23:16;100719.91;;;13.24;89.26
77216;BME280;66210;53.282;9.864;2023-07-20T03:25:43;100716.38;;;13.20;90.04
77216;BME280;66210;53.282;9.864;2023-07-20T03:28:10;100712.09;;;13.19;89.33
77216;BME280;66210;53.282;9.864;2023-07-20T03:30:37;100720.75;;;13.24;89.33
77216;BME280;66210;53.282;9.864;2023-07-20T03:33:03;100729.34;;;13.26;89.99
77216;BME280;66210;53.282;9.864;2023-07-20T03:35:30;100720.81;;;13.26;89.37
77216;BME280;66210;53.282;9.864;2023-07-20T03:37:57;100706.06;;;13.17;89.80
77216;BME280;66210;53.282;9.864;2023-07-20T03:40:24;100717.41;;;13.25;89.87
77216;BME280;66210;53.282;9.864;2023-07-20T03:42:51;100713.22;;;13.27;89.64
77216;BME280;66210;53.282;9.864;2023-07-20T03:45:18;100720.25;;;13.33;89.83
77216;BME280;66210;53.282;9.864;2023-07-20T03:47:45;100722.88;;;13.35;90.00
77216;BME280;66210;53.282;9.864;2023-07-20T03:50:13;100730.56;;;13.36;89.26
77216;BME280;66210;53.282;9.864;2023-07-20T03:52:40;100737.41;;;13.37;89.69
77216;BME280;66210;53.282;9.864;2023-07-20T03:55:07;100733.88;;;13.34;89.40
77216;BME280;66210;53.282;9.864;2023-07-20T03:57:34;100734.00;;;13.37;90.13
77216;BME280;66210;53.282;9.864;2023-07-20T04:00:01;100725.50;;;13.38;89.79
77216;BME280;66210;53.282;9.864;2023-07-20T04:02:29;100734.03;;;13.38;89.77
77216;BME280;66210;53.282;9.864;2023-07-20T04:04:56;100729.81;;;13.39;89.63
77216;BME280;66210;53.282;9.864;2023-07-20T04:07:22;100734.91;;;13.39;89.70
77216;BME280;66210;53.282;9.864;2023-07-20T04:09:49;100739.25;;;13.41;89.38
77216;BME280;66210;53.282;9.864;2023-07-20T04:12:16;100741.84;;;13.43;90.34
77216;BME280;66210;53.282;9.864;2023-07-20T04:14:43;100741.91;;;13.44;90.19
77216;BME280;66210;53.282;9.864;2023-07-20T04:17:09;100740.19;;;13.43;89.42
77216;BME280;66210;53.282;9.864;2023-07-20T04:19:39;100747.16;;;13.49;89.62
77216;BME280;66210;53.282;9.864;2023-07-20T04:22:06;100748.09;;;13.51;89.83
77216;BME280;66210;53.282;9.864;2023-07-20T04:24:33;100742.91;;;13.49;89.42
77216;BME280;66210;53.282;9.864;2023-07-20T04:27:00;100746.53;;;13.55;90.03
77216;BME280;66210;53.282;9.864;2023-07-20T04:29:27;100739.81;;;13.58;89.73
77216;BME280;66210;53.282;9.864;2023-07-20T04:31:54;100750.09;;;13.60;89.62
77216;BME280;66210;53.282;9.864;2023-07-20T04:34:20;100749.31;;;13.62;90.13
77216;BME280;66210;53.282;9.864;2023-07-20T04:36:47;100760.44;;;13.64;89.94
77216;BME280;66210;53.282;9.864;2023-07-20T04:39:14;100758.75;;;13.65;89.41
77216;BME280;66210;53.282;9.864;2023-07-20T04:41:57;100739.72;;;13.55;89.55
77216;BME280;66210;53.282;9.864;2023-07-20T04:44:24;100757.84;;;13.63;90.05
77216;BME280;66210;53.282;9.864;2023-07-20T04:46:50;100754.56;;;13.67;89.56
77216;BME280;66210;53.282;9.864;2023-07-20T04:49:17;100755.50;;;13.69;89.81
77216;BME280;66210;53.282;9.864;2023-07-20T04:51:45;100739.97;;;13.63;89.60
77216;BME280;66210;53.282;9.864;2023-07-20T04:54:11;100755.59;;;13.72;90.19
77216;BME280;66210;53.282;9.864;2023-07-20T04:56:38;100756.41;;;13.71;90.13
77216;BME280;66210;53.282;9.864;2023-07-20T04:59:05;100749.59;;;13.70;89.68
77216;BME280;66210;53.282;9.864;2023-07-20T05:01:31;100758.19;;;13.73;90.30
77216;BME280;66210;53.282;9.864;2023-07-20T05:03:58;100743.66;;;13.71;89.95
77216;BME280;66210;53.282;9.864;2023-07-20T05:06:25;100741.41;;;13.80;89.89
77216;BME280;66210;53.282;9.864;2023-07-20T05:08:52;100749.13;;;13.82;89.74
77216;BME280;66210;53.282;9.864;2023-07-20T05:11:18;100745.09;;;13.88;89.87
77216;BME280;66210;53.282;9.864;2023-07-20T05:13:46;100751.13;;;13.92;90.03
77216;BME280;66210;53.282;9.864;2023-07-20T05:16:12;100745.28;;;13.95;89.43
77216;BME280;66210;53.282;9.864;2023-07-20T05:18:39;100745.38;;;13.98;89.95
77216;BME280;66210;53.282;9.864;2023-07-20T05:21:05;100758.22;;;13.99;90.13
77216;BME280;66210;53.282;9.864;2023-07-20T05:23:32;100754.81;;;14.00;90.17
77216;BME280;66210;53.282;9.864;2023-07-20T05:25:59;100752.41;;;14.05;90.08
77216;BME280;66210;53.282;9.864;2023-07-20T05:28:26;100752.56;;;14.09;89.83
77216;BME280;66210;53.282;9.864;2023-07-20T05:30:53;100750.88;;;14.10;89.75
77216;BME280;66210;53.282;9.864;2023-07-20T05:33:20;100754.47;;;14.17;89.90
77216;BME280;66210;53.282;9.864;2023-07-20T05:35:48;100752.81;;;14.17;90.04
77216;BME280;66210;53.282;9.864;2023-07-20T05:38:14;100736.38;;;14.09;89.79
77216;BME280;66210;53.282;9.864;2023-07-20T05:40:41;100741.72;;;14.17;89.90
77216;BME280;66210;53.282;9.864;2023-07-20T05:43:10;100743.47;;;14.19;90.12
77216;BME280;66210;53.282;9.864;2023-07-20T05:45:37;100739.97;;;14.16;90.00
77216;BME280;66210;53.282;9.864;2023-07-20T05:48:04;100747.94;;;14.25;89.87
77216;BME280;66210;53.282;9.864;2023-07-20T05:50:31;100751.59;;;14.33;90.13
77216;BME280;66210;53.282;9.864;2023-07-20T05:52:57;100758.50;;;14.35;89.79
77216;BME280;66210;53.282;9.864;2023-07-20T05:55:24;100759.34;;;14.36;89.64
77216;BME280;66210;53.282;9.864;2023-07-20T05:57:50;100756.88;;;14.39;89.77
77216;BME280;66210;53.282;9.864;2023-07-20T06:00:18;100752.56;;;14.37;89.73
77216;BME280;66210;53.282;9.864;2023-07-20T06:02:46;100760.50;;;14.46;89.67
77216;BME280;66210;53.282;9.864;2023-07-20T06:05:14;100764.88;;;14.50;89.77
77216;BME280;66210;53.282;9.864;2023-07-20T06:07:41;100761.56;;;14.52;89.82
77216;BME280;66210;53.282;9.864;2023-07-20T06:10:08;100764.25;;;14.55;89.64
77216;BME280;66210;53.282;9.864;2023-07-20T06:12:35;100764.59;;;14.68;89.34
77216;BME280;66210;53.282;9.864;2023-07-20T06:15:03;100777.78;;;14.82;88.98
77216;BME280;66210;53.282;9.864;2023-07-20T06:17:30;100779.63;;;14.86;88.67
77216;BME280;66210;53.282;9.864;2023-07-20T06:19:57;100766.84;;;14.86;88.61
77216;BME280;66210;53.282;9.864;2023-07-20T06:22:24;100751.09;;;14.72;88.48
77216;BME280;66210;53.282;9.864;2023-07-20T06:24:51;100780.63;;;14.91;88.44
77216;BME280;66210;53.282;9.864;2023-07-20T06:27:17;100774.69;;;14.92;88.29
77216;BME280;66210;53.282;9.864;2023-07-20T06:29:44;100777.19;;;14.89;88.21
77216;BME280;66210;53.282;9.864;2023-07-20T06:32:10;100779.81;;;14.92;88.39
77216;BME280;66210;53.282;9.864;2023-07-20T06:34:37;100771.28;;;14.91;88.42
77216;BME280;66210;53.282;9.864;2023-07-20T06:37:04;100782.50;;;14.96;88.70
77216;BME280;66210;53.282;9.864;2023-07-20T06:39:31;100784.28;;;14.99;88.69
77216;BME280;66210;53.282;9.864;2023-07-20T06:42:00;100788.59;;;15.02;88.59
77216;BME280;66210;53.282;9.864;2023-07-20T06:44:27;100781.91;;;15.05;88.49
77216;BME280;66210;53.282;9.864;2023-07-20T06:46:54;100778.59;;;15.09;88.35
77216;BME280;66210;53.282;9.864;2023-07-20T06:49:25;100764.19;;;15.13;88.32
77216;BME280;66210;53.282;9.864;2023-07-20T06:51:52;100766.13;;;15.22;87.88
77216;BME280;66210;53.282;9.864;2023-07-20T06:54:19;100765.44;;;15.27;88.12
77216;BME280;66210;53.282;9.864;2023-07-20T06:56:50;100764.66;;;15.30;88.08
77216;BME280;66210;53.282;9.864;2023-07-20T06:59:37;100773.44;;;15.38;88.07
77216;BME280;66210;53.282;9.864;2023-07-20T07:02:08;100758.00;;;15.36;87.68
77216;BME280;66210;53.282;9.864;2023-07-20T07:04:41;100766.75;;;15.45;87.54
77216;BME280;66210;53.282;9.864;2023-07-20T07:07:08;100767.63;;;15.45;87.79
77216;BME280;66210;53.282;9.864;2023-07-20T07:09:36;100780.63;;;15.53;87.40
77216;BME280;66210;53.282;9.864;2023-07-20T07:12:04;100777.25;;;15.54;86.99
77216;BME280;66210;53.282;9.864;2023-07-20T07:14:31;100767.88;;;15.54;86.74
77216;BME280;66210;53.282;9.864;2023-07-20T07:16:59;100765.53;;;15.64;85.49
77216;BME280;66210;53.282;9.864;2023-07-20T07:19:31;100768.28;;;15.70;84.90
77216;BME280;66210;53.282;9.864;2023-07-20T07:21:58;100766.66;;;15.72;85.53
77216;BME280;66210;53.282;9.864;2023-07-20T07:24:26;100774.47;;;15.78;85.30
77216;BME280;66210;53.282;9.864;2023-07-20T07:26:57;100777.81;;;15.75;85.08
77216;BME280;66210;53.282;9.864;2023-07-20T07:29:23;100782.03;;;15.72;85.02
77216;BME280;66210;53.282;9.864;2023-07-20T07:31:51;100778.56;;;15.71;84.96
77216;BME280;66210;53.282;9.864;2023-07-20T07:34:17;100783.78;;;15.74;84.44
77216;BME280;66210;53.282;9.864;2023-07-20T07:36:44;100780.38;;;15.74;84.21
77216;BME280;66210;53.282;9.864;2023-07-20T07:39:11;100776.13;;;15.74;83.48
77216;BME280;66210;53.282;9.864;2023-07-20T07:41:41;100788.19;;;15.78;83.25
77216;BME280;66210;53.282;9.864;2023-07-20T07:44:08;100783.88;;;15.77;82.67
77216;BME280;66210;53.282;9.864;2023-07-20T07:46:34;100778.66;;;15.74;81.99
77216;BME280;66210;53.282;9.864;2023-07-20T07:49:01;100793.53;;;15.89;81.40
77216;BME280;66210;53.282;9.864;2023-07-20T07:51:28;100783.16;;;15.83;81.10
77216;BME280;66210;53.282;9.864;2023-07-20T07:53:55;100799.56;;;15.90;81.80
77216;BME280;66210;53.282;9.864;2023-07-20T07:56:22;100795.19;;;15.87;81.47
77216;BME280;66210;53.282;9.864;2023-07-20T07:58:51;100804.03;;;15.98;81.03
77216;BME280;66210;53.282;9.864;2023-07-20T08:01:18;100797.66;;;16.17;79.07
77216;BME280;66210;53.282;9.864;2023-07-20T08:03:49;100794.06;;;16.47;78.92
77216;BME280;66210;53.282;9.864;2023-07-20T08:06:16;100799.75;;;16.72;76.07
77216;BME280;66210;53.282;9.864;2023-07-20T08:08:42;100797.59;;;16.89;77.87
77216;BME280;66210;53.282;9.864;2023-07-20T08:11:09;100802.25;;;17.08;76.55
77216;BME280;66210;53.282;9.864;2023-07-20T08:13:36;100800.75;;;17.18;75.31
77216;BME280;66210;53.282;9.864;2023-07-20T08:16:03;100792.56;;;17.37;74.23
77216;BME280;66210;53.282;9.864;2023-07-20T08:18:32;100802.41;;;17.58;70.32
77216;BME280;66210;53.282;9.864;2023-07-20T08:20:59;100781.22;;;17.72;70.78
77216;BME280;66210;53.282;9.864;2023-07-20T08:23:26;100796.13;;;17.91;69.29
77216;BME280;66210;53.282;9.864;2023-07-20T08:25:54;100799.63;;;17.95;67.63
77216;BME280;66210;53.282;9.864;2023-07-20T08:28:21;100793.69;;;17.99;65.18
77216;BME280;66210;53.282;9.864;2023-07-20T08:30:48;100799.25;;;18.25;64.78
77216;BME280;66210;53.282;9.864;2023-07-20T08:33:17;100799.81;;;18.62;65.60
77216;BME280;66210;53.282;9.864;2023-07-20T08:35:47;100789.13;;;18.95;64.33
77216;BME280;66210;53.282;9.864;2023-07-20T08:38:13;100808.41;;;19.29;62.93
77216;BME280;66210;53.282;9.864;2023-07-20T08:40:43;100786.28;;;19.50;62.59
77216;BME280;66210;53.282;9.864;2023-07-20T08:43:14;100780.53;;;19.71;63.29
77216;BME280;66210;53.282;9.864;2023-07-20T08:45:44;100803.06;;;19.95;62.04
77216;BME280;66210;53.282;9.864;2023-07-20T08:48:12;100792.00;;;20.07;58.84
77216;BME280;66210;53.282;9.864;2023-07-20T08:50:41;100784.22;;;20.01;60.32
77216;BME280;66210;53.282;9.864;2023-07-20T08:53:10;100792.06;;;20.14;60.36
77216;BME280;66210;53.282;9.864;2023-07-20T08:55:37;100798.88;;;20.06;61.56
77216;BME280;66210;53.282;9.864;2023-07-20T08:58:04;100810.78;;;19.89;62.13
77216;BME280;66210;53.282;9.864;2023-07-20T09:00:35;100806.56;;;20.00;60.02
77216;BME280;66210;53.282;9.864;2023-07-20T09:03:02;100805.59;;;19.87;61.24
77216;BME280;66210;53.282;9.864;2023-07-20T09:05:30;100801.81;;;19.56;61.57
77216;BME280;66210;53.282;9.864;2023-07-20T09:07:58;100816.13;;;19.28;62.89
77216;BME280;66210;53.282;9.864;2023-07-20T09:10:26;100825.16;;;18.94;63.48
77216;BME280;66210;53.282;9.864;2023-07-20T09:12:53;100826.28;;;18.55;64.90
77216;BME280;66210;53.282;9.864;2023-07-20T09:15:22;100823.09;;;18.15;67.04
77216;BME280;66210;53.282;9.864;2023-07-20T09:17:50;100828.66;;;17.88;68.56
77216;BME280;66210;53.282;9.864;2023-07-20T09:20:18;100835.88;;;17.63;69.52
77216;BME280;66210;53.282;9.864;2023-07-20T09:22:48;100829.41;;;17.39;70.57
77216;BME280;66210;53.282;9.864;2023-07-20T09:25:17;100835.28;;;17.32;71.51
77216;BME280;66210;53.282;9.864;2023-07-20T09:27:49;100836.72;;;17.19;71.71
77216;BME280;66210;53.282;9.864;2023-07-20T09:30:18;100832.41;;;17.17;72.08
77216;BME280;66210;53.282;9.864;2023-07-20T09:32:46;100831.13;;;17.39;72.21
77216;BME280;66210;53.282;9.864;2023-07-20T09:35:18;100838.56;;;17.69;71.45
77216;BME280;66210;53.282;9.864;2023-07-20T09:38:01;100828.16;;;18.10;70.84
77216;BME280;66210;53.282;9.864;2023-07-20T09:40:37;100831.44;;;18.56;69.52
77216;BME280;66210;53.282;9.864;2023-07-20T09:43:08;100828.81;;;19.11;66.63
77216;BME280;66210;53.282;9.864;2023-07-20T09:45:42;100817.34;;;19.64;66.32
77216;BME280;66210;53.282;9.864;2023-07-20T09:48:11;100823.84;;;20.10;66.43
77216;BME280;66210;53.282;9.864;2023-07-20T09:50:49;100819.97;;;20.66;63.53
77216;BME280;66210;53.282;9.864;2023-07-20T09:53:17;100814.16;;;21.09;61.27
77216;BME280;66210;53.282;9.864;2023-07-20T09:55:45;100815.84;;;21.07;57.65
77216;BME280;66210;53.282;9.864;2023-07-20T09:58:13;100821.66;;;20.64;59.20
77216;BME280;66210;53.282;9.864;2023-07-20T10:00:41;100816.94;;;20.11;60.84
77216;BME280;66210;53.282;9.864;2023-07-20T10:03:18;100816.63;;;19.71;62.50
77216;BME280;66210;53.282;9.864;2023-07-20T10:05:52;100825.84;;;19.52;62.20
77216;BME280;66210;53.282;9.864;2023-07-20T10:08:24;100812.81;;;19.38;62.99
77216;BME280;66210;53.282;9.864;2023-07-20T10:10:54;100839.06;;;19.09;63.06
77216;BME280;66210;53.282;9.864;2023-07-20T10:13:28;100834.19;;;18.65;64.69
77216;BME280;66210;53.282;9.864;2023-07-20T10:16:02;100843.06;;;18.30;66.25
77216;BME280;66210;53.282;9.864;2023-07-20T10:21:00;100835.91;;;18.13;68.88
77216;BME280;66210;53.282;9.864;2023-07-20T10:23:31;100825.41;;;18.53;68.66
77216;BME280;66210;53.282;9.864;2023-07-20T10:26:03;100818.47;;;19.09;66.20
77216;BME280;66210;53.282;9.864;2023-07-20T10:28:31;100818.31;;;19.69;64.82
77216;BME280;66210;53.282;9.864;2023-07-20T10:30:57;100817.09;;;20.25;64.57
77216;BME280;66210;53.282;9.864;2023-07-20T10:33:24;100814.00;;;20.78;63.03
77216;BME280;66210;53.282;9.864;2023-07-20T10:36:01;100815.06;;;21.25;62.58
77216;BME280;66210;53.282;9.864;2023-07-20T10:38:58;100797.13;;;21.83;59.80
77216;BME280;66210;53.282;9.864;2023-07-20T10:44:02;100804.84;;;22.57;57.60
77216;BME280;66210;53.282;9.864;2023-07-20T10:49:08;100794.28;;;23.20;55.49
77216;BME280;66210;53.282;9.864;2023-07-20T10:51:43;100804.66;;;23.15;55.29
77216;BME280;66210;53.282;9.864;2023-07-20T10:56:44;100824.69;;;21.90;57.26
77216;BME280;66210;53.282;9.864;2023-07-20T10:59:40;100827.84;;;20.91;60.61
77216;BME280;66210;53.282;9.864;2023-07-20T11:02:09;100829.94;;;20.19;62.50
77216;BME280;66210;53.282;9.864;2023-07-20T11:04:42;100810.34;;;19.50;64.51
77216;BME280;66210;53.282;9.864;2023-07-20T11:07:09;100824.59;;;19.18;66.29
77216;BME280;66210;53.282;9.864;2023-07-20T11:09:37;100816.44;;;18.84;67.45
77216;BME280;66210;53.282;9.864;2023-07-20T11:12:15;100825.78;;;18.77;67.69
77216;BME280;66210;53.282;9.864;2023-07-20T11:14:53;100816.88;;;19.21;70.04
77216;BME280;66210;53.282;9.864;2023-07-20T11:17:20;100816.75;;;19.85;66.38
77216;BME280;66210;53.282;9.864;2023-07-20T11:19:57;100819.00;;;20.55;64.75
77216;BME280;66210;53.282;9.864;2023-07-20T11:22:27;100819.31;;;21.06;61.46
77216;BME280;66210;53.282;9.864;2023-07-20T11:24:57;100825.53;;;21.55;60.53
77216;BME280;66210;53.282;9.864;2023-07-20T11:27:24;100831.59;;;21.84;59.31
77216;BME280;66210;53.282;9.864;2023-07-20T11:29:51;100817.81;;;21.78;59.69
77216;BME280;66210;53.282;9.864;2023-07-20T11:32:21;100825.50;;;21.45;60.91
77216;BME280;66210;53.282;9.864;2023-07-20T11:34:48;100807.22;;;21.00;61.67
77216;BME280;66210;53.282;9.864;2023-07-20T11:37:16;100832.91;;;20.72;61.25
77216;BME280;66210;53.282;9.864;2023-07-20T11:39:43;100835.16;;;20.25;61.65
77216;BME280;66210;53.282;9.864;2023-07-20T11:42:11;100839.84;;;19.74;63.01
77216;BME280;66210;53.282;9.864;2023-07-20T11:44:38;100842.00;;;19.39;63.79
77216;BME280;66210;53.282;9.864;2023-07-20T11:47:10;100839.06;;;19.09;65.07
77216;BME280;66210;53.282;9.864;2023-07-20T11:49:42;100823.25;;;18.80;65.16
77216;BME280;66210;53.282;9.864;2023-07-20T11:52:11;100828.06;;;18.60;65.78
77216;BME280;66210;53.282;9.864;2023-07-20T11:54:40;100835.50;;;18.40;65.66
77216;BME280;66210;53.282;9.864;2023-07-20T11:57:18;100843.84;;;18.27;66.34
77216;BME280;66210;53.282;9.864;2023-07-20T12:00:00;100857.47;;;18.18;66.80
77216;BME280;66210;53.282;9.864;2023-07-20T12:02:29;100863.13;;;17.99;65.95
77216;BME280;66210;53.282;9.864;2023-07-20T12:04:59;100862.63;;;17.74;67.69
77216;BME280;66210;53.282;9.864;2023-07-20T12:07:28;100857.88;;;17.50;67.87
77216;BME280;66210;53.282;9.864;2023-07-20T12:10:05;100853.28;;;17.34;69.23
77216;BME280;66210;53.282;9.864;2023-07-20T12:12:34;100840.28;;;17.24;70.04
77216;BME280;66210;53.282;9.864;2023-07-20T12:15:23;100836.94;;;17.29;70.71
77216;BME280;66210;53.282;9.864;2023-07-20T12:17:52;100847.66;;;17.53;70.95
77216;BME280;66210;53.282;9.864;2023-07-20T12:23:09;100839.25;;;18.62;72.88
77216;BME280;66210;53.282;9.864;2023-07-20T12:25:40;100829.69;;;19.13;70.39
77216;BME280;66210;53.282;9.864;2023-07-20T12:28:11;100839.44;;;19.37;69.18
77216;BME280;66210;53.282;9.864;2023-07-20T12:30:42;100831.63;;;19.32;68.48
77216;BME280;66210;53.282;9.864;2023-07-20T12:33:09;100828.91;;;19.20;67.86
77216;BME280;66210;53.282;9.864;2023-07-20T12:35:36;100832.22;;;19.08;68.65
77216;BME280;66210;53.282;9.864;2023-07-20T12:38:03;100809.81;;;19.01;68.99
77216;BME280;66210;53.282;9.864;2023-07-20T12:40:30;100828.34;;;19.44;68.73
77216;BME280;66210;53.282;9.864;2023-07-20T12:42:57;100812.56;;;19.99;68.20
77216;BME280;66210;53.282;9.864;2023-07-20T12:45:25;100813.06;;;20.64;66.10
77216;BME280;66210;53.282;9.864;2023-07-20T12:47:51;100807.34;;;21.28;65.29
77216;BME280;66210;53.282;9.864;2023-07-20T12:50:18;100797.94;;;21.65;64.60
77216;BME280;66210;53.282;9.864;2023-07-20T12:52:46;100790.22;;;21.73;64.58
77216;BME280;66210;53.282;9.864;2023-07-20T12:55:14;100804.88;;;21.66;63.92
77216;BME280;66210;53.282;9.864;2023-07-20T12:57:41;100811.72;;;21.49;63.13
77216;BME280;66210;53.282;9.864;2023-07-20T13:00:09;100816.78;;;21.23;63.25
77216;BME280;66210;53.282;9.864;2023-07-20T13:02:37;100808.94;;;20.98;59.13
77216;BME280;66210;53.282;9.864;2023-07-20T13:05:05;100794.28;;;20.95;59.36
77216;BME280;66210;53.282;9.864;2023-07-20T13:07:34;100791.75;;;21.09;59.51
77216;BME280;66210;53.282;9.864;2023-07-20T13:10:05;100810.63;;;20.93;58.26
77216;BME280;66210;53.282;9.864;2023-07-20T13:12:33;100807.88;;;20.59;57.89